Time;durP1;ratioP1;P1;durP2;ratioP2;P2;SDS_P1;SDS_P2;PMS_P1;PMS_P2;Temp;Humidity;BMP_temperature;BMP_pressure;BME280_temperature;BME280_humidity;BME280_pressure;Samples;Min_cycle;Max_cycle;Signal;HPM_P1;HPM_P2
2021/08/26 00:08:09;;;;;;;10.55;5.90;;;;;;;;;;5044816;28;20418;-85
2021/08/26 00:10:54;;;;;;;10.45;5.35;;;;;;;;;;5044821;28;20040;-84
2021/08/26 00:13:39;;;;;;;8.75;5.47;;;;;;;;;;5046036;28;20098;-85
2021/08/26 00:16:25;;;;;;;11.00;6.32;;;;;;;;;;5044847;28;20035;-84
2021/08/26 00:19:10;;;;;;;9.82;5.63;;;;;;;;;;5038424;28;20110;-85
2021/08/26 00:21:54;;;;;;;9.82;5.40;;;;;;;;;;5044797;28;20111;-84
2021/08/26 00:24:39;;;;;;;8.48;5.28;;;;;;;;;;5044531;28;20577;-78
2021/08/26 00:27:24;;;;;;;8.25;5.47;;;;;;;;;;5044843;28;20521;-84
2021/08/26 00:30:09;;;;;;;8.85;5.45;;;;;;;;;;5045704;28;20112;-83
2021/08/26 00:32:53;;;;;;;10.38;5.50;;;;;;;;;;5045755;28;20043;-84
2021/08/26 00:35:38;;;;;;;8.60;5.47;;;;;;;;;;5044663;28;20089;-84
2021/08/26 00:38:22;;;;;;;9.73;5.80;;;;;;;;;;5044698;28;20095;-84
2021/08/26 00:41:07;;;;;;;8.57;5.65;;;;;;;;;;5044815;28;20618;-83
2021/08/26 00:43:51;;;;;;;8.60;5.47;;;;;;;;;;5044534;28;20044;-84
2021/08/26 00:46:36;;;;;;;10.40;5.57;;;;;;;;;;5044568;28;20157;-84
2021/08/26 00:49:21;;;;;;;6.78;5.13;;;;;;;;;;5046292;28;20067;-84
2021/08/26 00:52:05;;;;;;;8.40;5.78;;;;;;;;;;5048144;28;20791;-84
2021/08/26 00:54:50;;;;;;;8.40;5.40;;;;;;;;;;5048440;28;20047;-83
2021/08/26 00:57:35;;;;;;;10.00;5.75;;;;;;;;;;5048171;28;20047;-84
2021/08/26 01:00:20;;;;;;;7.93;5.13;;;;;;;;;;5049604;28;20051;-83
2021/08/26 01:03:07;;;;;;;8.75;5.45;;;;;;;;;;5047948;28;20452;-84
2021/08/26 01:05:55;;;;;;;8.90;5.70;;;;;;;;;;5047902;28;20067;-84
2021/08/26 01:09:01;;;;;;;7.60;5.25;;;;;;;;;;5048068;28;20079;-83
2021/08/26 01:11:45;;;;;;;9.63;5.40;;;;;;;;;;5047996;28;20110;-84
2021/08/26 01:14:30;;;;;;;8.35;5.45;;;;;;;;;;5048853;28;20068;-84
2021/08/26 01:17:19;;;;;;;7.95;5.40;;;;;;;;;;5047994;28;20067;-83
2021/08/26 01:20:04;;;;;;;8.80;5.60;;;;;;;;;;5047966;28;20094;-83
2021/08/26 01:22:49;;;;;;;8.80;5.63;;;;;;;;;;5033968;28;20036;-84
2021/08/26 01:25:40;;;;;;;8.35;5.53;;;;;;;;;;5047706;28;20044;-84
2021/08/26 01:28:24;;;;;;;8.82;5.78;;;;;;;;;;5047945;28;20128;-84
2021/08/26 01:31:09;;;;;;;7.15;5.15;;;;;;;;;;5048706;28;20098;-78
2021/08/26 01:33:54;;;;;;;7.72;5.40;;;;;;;;;;5047541;28;20043;-83
2021/08/26 01:36:39;;;;;;;9.75;6.20;;;;;;;;;;5047474;28;20182;-83
2021/08/26 01:39:24;;;;;;;8.77;5.97;;;;;;;;;;5047646;28;20040;-84
2021/08/26 01:42:08;;;;;;;9.65;5.60;;;;;;;;;;5047417;28;20044;-83
2021/08/26 01:44:57;;;;;;;11.20;5.80;;;;;;;;;;5047353;28;20047;-84
2021/08/26 01:47:41;;;;;;;8.43;6.10;;;;;;;;;;5048426;28;20094;-83
2021/08/26 01:50:28;;;;;;;8.93;5.63;;;;;;;;;;5049648;28;20151;-84
2021/08/26 01:53:13;;;;;;;8.23;5.57;;;;;;;;;;5049206;28;20149;-84
2021/08/26 01:55:58;;;;;;;8.90;5.93;;;;;;;;;;5049691;28;20055;-84
2021/08/26 01:58:43;;;;;;;9.65;6.38;;;;;;;;;;5050596;28;20040;-84
2021/08/26 02:01:28;;;;;;;9.05;5.53;;;;;;;;;;5049716;28;20094;-84
2021/08/26 02:04:12;;;;;;;8.25;6.22;;;;;;;;;;5049532;28;20118;-84
2021/08/26 02:06:57;;;;;;;9.88;6.15;;;;;;;;;;5050422;28;20127;-84
2021/08/26 02:09:41;;;;;;;9.73;5.90;;;;;;;;;;5049412;28;20048;-84
2021/08/26 02:12:26;;;;;;;8.57;6.07;;;;;;;;;;5049362;28;20040;-83
2021/08/26 02:15:11;;;;;;;11.73;6.35;;;;;;;;;;5050922;28;20051;-83
2021/08/26 02:17:55;;;;;;;9.52;6.63;;;;;;;;;;5035275;28;20043;-84
2021/08/26 02:20:40;;;;;;;9.13;6.50;;;;;;;;;;5035183;28;20048;-84
2021/08/26 02:23:25;;;;;;;8.27;6.00;;;;;;;;;;5049132;28;20509;-84
2021/08/26 02:26:09;;;;;;;10.85;6.05;;;;;;;;;;5050263;28;20121;-84
2021/08/26 02:28:54;;;;;;;9.10;5.80;;;;;;;;;;5050089;28;20434;-83
2021/08/26 02:31:38;;;;;;;8.90;6.15;;;;;;;;;;5050114;28;20063;-84
2021/08/26 02:34:23;;;;;;;8.10;6.10;;;;;;;;;;5048917;28;20094;-84
2021/08/26 02:37:07;;;;;;;9.05;6.30;;;;;;;;;;5049968;28;20047;-84
2021/08/26 02:39:52;;;;;;;8.57;5.97;;;;;;;;;;5049932;28;20588;-85
2021/08/26 02:42:36;;;;;;;7.22;5.63;;;;;;;;;;5050004;28;20546;-84
2021/08/26 02:45:21;;;;;;;8.95;6.15;;;;;;;;;;5048747;28;20460;-84
2021/08/26 02:48:06;;;;;;;8.73;5.72;;;;;;;;;;5049813;28;20060;-84
2021/08/26 02:50:51;;;;;;;7.50;5.85;;;;;;;;;;5049752;28;20094;-84
2021/08/26 02:53:35;;;;;;;9.13;5.97;;;;;;;;;;5049747;28;20047;-84
2021/08/26 02:56:20;;;;;;;8.80;6.20;;;;;;;;;;5049606;28;20067;-83
2021/08/26 02:59:04;;;;;;;7.53;5.78;;;;;;;;;;5049588;28;20519;-83
2021/08/26 03:01:49;;;;;;;7.18;5.80;;;;;;;;;;5049617;28;20083;-84
2021/08/26 03:04:33;;;;;;;7.25;5.85;;;;;;;;;;5049562;28;20059;-83
2021/08/26 03:07:18;;;;;;;7.18;5.70;;;;;;;;;;5049343;28;20102;-83
2021/08/26 03:10:03;;;;;;;8.57;6.00;;;;;;;;;;5049471;28;20128;-84
2021/08/26 03:12:48;;;;;;;8.30;5.55;;;;;;;;;;5049188;28;20115;-84
2021/08/26 03:15:32;;;;;;;7.75;5.47;;;;;;;;;;5050010;28;20043;-83
2021/08/26 03:18:17;;;;;;;8.13;5.65;;;;;;;;;;5049272;28;20536;-84
2021/08/26 03:21:01;;;;;;;7.88;5.43;;;;;;;;;;5049252;28;20441;-84
2021/08/26 03:23:46;;;;;;;11.15;5.82;;;;;;;;;;5048104;28;20110;-84
2021/08/26 03:26:30;;;;;;;8.52;5.50;;;;;;;;;;5048996;28;20047;-84
2021/08/26 03:29:15;;;;;;;8.60;5.80;;;;;;;;;;5047963;28;20048;-84
2021/08/26 03:31:59;;;;;;;7.68;5.55;;;;;;;;;;5049041;28;20518;-84
2021/08/26 03:34:44;;;;;;;8.48;6.00;;;;;;;;;;5047934;28;20072;-84
2021/08/26 03:37:28;;;;;;;7.63;5.57;;;;;;;;;;5048877;28;20144;-83
2021/08/26 03:40:13;;;;;;;7.32;5.57;;;;;;;;;;5048942;28;20082;-83
2021/08/26 03:42:58;;;;;;;7.90;5.50;;;;;;;;;;5047811;28;20095;-83
2021/08/26 03:45:43;;;;;;;7.38;5.47;;;;;;;;;;5048750;28;20036;-84
2021/08/26 03:48:27;;;;;;;7.55;5.53;;;;;;;;;;5048720;28;20064;-84
2021/08/26 03:51:13;;;;;;;7.85;5.40;;;;;;;;;;5048611;28;20160;-83
2021/08/26 03:53:58;;;;;;;6.45;5.70;;;;;;;;;;5048737;28;20110;-84
2021/08/26 03:56:42;;;;;;;9.63;5.75;;;;;;;;;;5048120;28;20048;-84
2021/08/26 03:59:26;;;;;;;8.13;5.53;;;;;;;;;;5048623;28;20048;-84
2021/08/26 04:02:11;;;;;;;7.13;5.22;;;;;;;;;;5048664;28;20047;-84
2021/08/26 04:04:56;;;;;;;7.13;5.38;;;;;;;;;;5047512;28;20098;-83
2021/08/26 04:07:40;;;;;;;7.05;5.22;;;;;;;;;;5048515;28;20183;-84
2021/08/26 04:10:25;;;;;;;9.02;5.35;;;;;;;;;;5048584;28;20059;-84
2021/08/26 04:13:10;;;;;;;8.25;5.70;;;;;;;;;;5048465;28;20501;-84
2021/08/26 04:15:54;;;;;;;7.90;5.18;;;;;;;;;;5047909;28;20075;-83
2021/08/26 04:18:39;;;;;;;7.68;5.75;;;;;;;;;;5048472;28;20115;-83
2021/08/26 04:21:23;;;;;;;7.55;5.07;;;;;;;;;;5048373;28;20044;-84
2021/08/26 04:24:08;;;;;;;8.32;5.45;;;;;;;;;;5049789;28;20070;-84
2021/08/26 04:26:52;;;;;;;8.32;5.07;;;;;;;;;;5052146;28;20048;-83
2021/08/26 04:29:37;;;;;;;6.70;5.35;;;;;;;;;;5051029;28;20044;-83
2021/08/26 04:32:21;;;;;;;7.22;5.50;;;;;;;;;;5052060;28;20031;-84
2021/08/26 04:35:06;;;;;;;7.75;5.40;;;;;;;;;;5051931;28;20524;-83
2021/08/26 04:37:51;;;;;;;7.35;5.53;;;;;;;;;;5052799;28;20123;-83
2021/08/26 04:40:36;;;;;;;9.45;5.90;;;;;;;;;;5052743;28;20099;-83
2021/08/26 04:43:20;;;;;;;7.15;5.60;;;;;;;;;;5052686;28;20091;-83
2021/08/26 04:46:05;;;;;;;7.18;5.28;;;;;;;;;;5037656;28;20097;-83
2021/08/26 04:48:50;;;;;;;7.13;5.70;;;;;;;;;;5050998;28;20114;-83
2021/08/26 04:51:34;;;;;;;8.85;5.78;;;;;;;;;;5048965;28;20055;-82
2021/08/26 04:54:18;;;;;;;7.55;5.75;;;;;;;;;;5048985;28;20087;-83
2021/08/26 04:57:03;;;;;;;8.35;5.22;;;;;;;;;;5049135;28;20048;-83
2021/08/26 04:59:48;;;;;;;7.38;5.65;;;;;;;;;;5050013;28;20043;-83
2021/08/26 05:02:33;;;;;;;7.43;5.35;;;;;;;;;;5050403;28;20053;-84
2021/08/26 05:05:17;;;;;;;7.32;5.88;;;;;;;;;;5048768;28;20240;-81
2021/08/26 05:08:02;;;;;;;10.07;5.50;;;;;;;;;;5048810;28;20087;-83
2021/08/26 05:10:46;;;;;;;6.93;5.55;;;;;;;;;;5048921;28;20460;-83
2021/08/26 05:13:31;;;;;;;7.63;5.53;;;;;;;;;;5048746;28;20151;-83
2021/08/26 05:16:15;;;;;;;7.22;5.63;;;;;;;;;;5049707;28;20539;-83
2021/08/26 05:19:00;;;;;;;9.48;5.85;;;;;;;;;;5048808;28;20516;-83
2021/08/26 05:21:45;;;;;;;8.27;5.47;;;;;;;;;;5048668;28;20032;-83
2021/08/26 05:24:30;;;;;;;7.18;5.47;;;;;;;;;;5034476;28;20075;-83
2021/08/26 05:27:14;;;;;;;7.95;6.00;;;;;;;;;;5049603;28;20731;-83
2021/08/26 05:29:59;;;;;;;8.13;5.35;;;;;;;;;;5048204;28;20064;-83
2021/08/26 05:32:44;;;;;;;7.32;5.50;;;;;;;;;;5049466;28;20040;-82
2021/08/26 05:35:28;;;;;;;7.05;5.10;;;;;;;;;;5046616;28;20094;-82
2021/08/26 05:38:13;;;;;;;7.20;5.28;;;;;;;;;;5049396;28;20044;-76
2021/08/26 05:40:58;;;;;;;8.52;5.75;;;;;;;;;;5048026;28;20067;-83
2021/08/26 05:43:42;;;;;;;7.60;5.30;;;;;;;;;;5052423;28;20047;-84
2021/08/26 05:46:27;;;;;;;7.15;5.50;;;;;;;;;;5049083;28;20052;-84
2021/08/26 05:49:11;;;;;;;6.65;5.10;;;;;;;;;;5048752;28;20059;-83
2021/08/26 05:51:56;;;;;;;7.82;5.68;;;;;;;;;;5048196;28;20036;-85
2021/08/26 05:54:41;;;;;;;7.43;5.70;;;;;;;;;;5048952;28;20138;-84
2021/08/26 05:57:25;;;;;;;8.60;5.80;;;;;;;;;;5048827;28;20044;-85
2021/08/26 06:00:10;;;;;;;8.20;5.65;;;;;;;;;;5034359;28;20090;-84
2021/08/26 06:02:55;;;;;;;7.53;5.97;;;;;;;;;;5048059;28;20504;-84
2021/08/26 06:05:39;;;;;;;7.18;5.63;;;;;;;;;;5033609;28;20121;-84
2021/08/26 06:08:27;;;;;;;7.38;5.43;;;;;;;;;;5047603;28;20102;-84
2021/08/26 06:11:11;;;;;;;8.05;6.10;;;;;;;;;;5047631;28;20044;-84
2021/08/26 06:13:56;;;;;;;8.50;6.20;;;;;;;;;;5051125;28;20055;-83
2021/08/26 06:16:41;;;;;;;6.70;5.28;;;;;;;;;;5049544;28;20102;-83
2021/08/26 06:19:25;;;;;;;6.88;5.68;;;;;;;;;;5034596;28;20052;-83
2021/08/26 06:22:10;;;;;;;6.53;5.15;;;;;;;;;;5047591;28;20453;-83
2021/08/26 06:24:54;;;;;;;8.63;5.85;;;;;;;;;;5047364;28;20043;-83
2021/08/26 06:27:39;;;;;;;8.20;5.65;;;;;;;;;;5050456;28;20530;-83
2021/08/26 06:30:24;;;;;;;7.78;5.40;;;;;;;;;;5047438;28;20540;-83
2021/08/26 06:33:08;;;;;;;6.53;5.20;;;;;;;;;;5048818;28;20047;-83
2021/08/26 06:35:53;;;;;;;8.00;5.93;;;;;;;;;;5052588;28;20040;-82
2021/08/26 06:38:38;;;;;;;6.90;5.15;;;;;;;;;;5036989;28;20357;-84
2021/08/26 06:41:22;;;;;;;7.00;5.55;;;;;;;;;;5057250;28;20111;-81
2021/08/26 06:44:07;;;;;;;7.45;5.50;;;;;;;;;;5057431;28;20047;-83
2021/08/26 06:46:52;;;;;;;7.15;5.15;;;;;;;;;;5049557;28;20083;-83
2021/08/26 06:49:36;;;;;;;7.75;5.57;;;;;;;;;;5050026;28;20060;-83
2021/08/26 06:52:21;;;;;;;7.78;5.25;;;;;;;;;;5049459;28;20059;-82
2021/08/26 06:55:05;;;;;;;7.65;5.88;;;;;;;;;;5049717;28;20555;-80
2021/08/26 06:57:50;;;;;;;7.93;5.88;;;;;;;;;;5034372;28;20043;-82
2021/08/26 07:00:35;;;;;;;7.40;5.38;;;;;;;;;;5049252;28;20056;-83
2021/08/26 07:03:19;;;;;;;8.02;6.22;;;;;;;;;;5034127;28;20048;-81
2021/08/26 07:06:04;;;;;;;6.97;5.88;;;;;;;;;;5047829;28;20086;-82
2021/08/26 07:08:48;;;;;;;6.75;5.55;;;;;;;;;;5032431;28;20151;-81
2021/08/26 07:11:33;;;;;;;6.97;5.78;;;;;;;;;;5046626;28;20043;-75
2021/08/26 07:14:18;;;;;;;8.60;6.18;;;;;;;;;;5033913;28;20075;-82
2021/08/26 07:17:03;;;;;;;9.98;5.93;;;;;;;;;;5032174;28;20138;-82
2021/08/26 07:19:48;;;;;;;9.70;5.97;;;;;;;;;;5046373;28;20087;-82
2021/08/26 07:22:32;;;;;;;9.05;6.05;;;;;;;;;;5047171;28;20074;-82
2021/08/26 07:25:17;;;;;;;7.55;5.63;;;;;;;;;;5046760;28;20131;-83
2021/08/26 07:28:03;;;;;;;6.95;5.45;;;;;;;;;;5047122;28;20114;-83
2021/08/26 07:30:48;;;;;;;7.57;5.85;;;;;;;;;;5046052;28;20075;-82
2021/08/26 07:33:32;;;;;;;6.95;5.57;;;;;;;;;;5047109;28;20043;-83
2021/08/26 07:36:17;;;;;;;7.28;5.28;;;;;;;;;;5052679;28;20163;-83
2021/08/26 07:39:01;;;;;;;8.45;5.72;;;;;;;;;;5050394;28;20087;-82
2021/08/26 07:41:46;;;;;;;7.43;6.15;;;;;;;;;;5052864;28;20097;-83
2021/08/26 07:44:30;;;;;;;7.93;5.40;;;;;;;;;;5047287;28;20049;-83
2021/08/26 07:47:15;;;;;;;7.70;5.72;;;;;;;;;;5046723;28;20152;-84
2021/08/26 07:50:00;;;;;;;6.57;5.03;;;;;;;;;;5047042;28;20048;-84
2021/08/26 07:52:45;;;;;;;8.07;6.03;;;;;;;;;;5046696;28;20645;-84
2021/08/26 07:55:29;;;;;;;6.60;5.15;;;;;;;;;;5046567;28;20086;-84
2021/08/26 07:58:14;;;;;;;9.52;6.05;;;;;;;;;;5046802;28;20418;-80
2021/08/26 08:00:59;;;;;;;7.35;5.38;;;;;;;;;;5053917;28;20091;-84
2021/08/26 08:03:44;;;;;;;6.50;4.57;;;;;;;;;;5050003;28;20091;-83
2021/08/26 08:06:29;;;;;;;6.40;5.10;;;;;;;;;;5049935;28;20148;-82
2021/08/26 08:09:13;;;;;;;8.93;5.20;;;;;;;;;;5050478;28;20071;-83
2021/08/26 08:11:59;;;;;;;7.18;5.40;;;;;;;;;;5050431;28;20071;-84
2021/08/26 08:14:44;;;;;;;7.97;5.85;;;;;;;;;;5049232;28;20044;-83
2021/08/26 08:17:28;;;;;;;7.00;5.20;;;;;;;;;;5050671;28;20044;-84
2021/08/26 08:20:13;;;;;;;7.25;5.18;;;;;;;;;;5050690;28;20086;-84
2021/08/26 08:22:57;;;;;;;7.72;5.40;;;;;;;;;;5050652;28;20051;-83
2021/08/26 08:25:42;;;;;;;5.78;5.00;;;;;;;;;;5049454;28;20044;-84
2021/08/26 08:28:28;;;;;;;6.30;4.82;;;;;;;;;;5050269;28;20528;-84
2021/08/26 08:31:13;;;;;;;8.93;5.38;;;;;;;;;;5050301;28;20099;-84
2021/08/26 08:34:00;;;;;;;6.53;4.93;;;;;;;;;;5050703;28;20039;-84
2021/08/26 08:36:44;;;;;;;6.35;4.88;;;;;;;;;;5049571;28;20043;-84
2021/08/26 08:39:29;;;;;;;5.50;4.68;;;;;;;;;;5050763;28;20129;-82
2021/08/26 08:42:13;;;;;;;7.47;5.40;;;;;;;;;;5049403;28;20124;-83
2021/08/26 08:44:59;;;;;;;6.78;4.78;;;;;;;;;;5049234;28;20056;-84
2021/08/26 08:47:43;;;;;;;6.20;4.72;;;;;;;;;;5049433;28;20043;-77
2021/08/26 08:50:28;;;;;;;7.32;5.00;;;;;;;;;;5050978;28;20078;-85
2021/08/26 08:53:13;;;;;;;6.28;4.65;;;;;;;;;;5050660;28;20040;-85
2021/08/26 08:55:58;;;;;;;6.85;5.15;;;;;;;;;;5035285;28;20047;-85
2021/08/26 08:58:42;;;;;;;7.30;4.88;;;;;;;;;;5049302;28;20048;-83
2021/08/26 09:01:27;;;;;;;5.03;4.20;;;;;;;;;;5050356;28;20130;-84
2021/08/26 09:04:12;;;;;;;6.28;4.78;;;;;;;;;;5048890;28;20155;-84
2021/08/26 09:06:56;;;;;;;4.78;4.07;;;;;;;;;;5048791;28;20047;-77
2021/08/26 09:09:51;;;;;;;5.45;4.05;;;;;;;;;;5049960;28;20563;-84
2021/08/26 09:12:42;;;;;;;4.75;4.10;;;;;;;;;;5048970;28;20044;-80
2021/08/26 09:15:30;;;;;;;4.55;3.80;;;;;;;;;;5048688;28;20638;-84
2021/08/26 09:18:18;;;;;;;6.45;4.07;;;;;;;;;;5049683;28;20071;-82
2021/08/26 09:21:07;;;;;;;5.07;4.45;;;;;;;;;;5034877;28;20040;-84
2021/08/26 09:23:52;;;;;;;5.38;3.95;;;;;;;;;;5035433;28;20087;-84
2021/08/26 09:26:38;;;;;;;5.75;4.70;;;;;;;;;;5034685;28;20071;-80
2021/08/26 09:29:23;;;;;;;4.60;4.10;;;;;;;;;;5049592;28;20137;-83
2021/08/26 09:32:08;;;;;;;5.25;4.20;;;;;;;;;;5048782;28;20604;-83
2021/08/26 09:34:52;;;;;;;5.00;4.15;;;;;;;;;;5048444;28;20433;-83
2021/08/26 09:37:40;;;;;;;4.90;4.10;;;;;;;;;;5048255;28;20038;-82
2021/08/26 09:40:27;;;;;;;4.60;4.00;;;;;;;;;;5047570;28;20087;-83
2021/08/26 09:43:11;;;;;;;4.78;4.15;;;;;;;;;;5035015;28;20075;-83
2021/08/26 09:45:56;;;;;;;5.00;4.18;;;;;;;;;;5050492;28;20463;-83
2021/08/26 09:48:40;;;;;;;5.28;4.05;;;;;;;;;;5049457;28;20094;-76
2021/08/26 09:51:25;;;;;;;5.20;4.10;;;;;;;;;;5048127;28;20040;-83
2021/08/26 09:54:29;;;;;;;4.30;3.90;;;;;;;;;;5033926;28;20051;-82
2021/08/26 09:57:27;;;;;;;4.35;3.92;;;;;;;;;;5049408;28;20653;-82
2021/08/26 10:00:12;;;;;;;4.88;4.10;;;;;;;;;;5049257;28;20051;-82
2021/08/26 10:02:56;;;;;;;4.63;3.75;;;;;;;;;;5059918;28;20052;-82
2021/08/26 10:05:44;;;;;;;5.03;3.90;;;;;;;;;;5056942;28;20505;-82
2021/08/26 10:08:32;;;;;;;4.35;3.95;;;;;;;;;;5058427;28;20052;-81
2021/08/26 10:11:18;;;;;;;4.40;3.95;;;;;;;;;;5056311;28;20051;-82
2021/08/26 10:14:03;;;;;;;4.50;3.97;;;;;;;;;;5049005;28;20043;-82
2021/08/26 10:16:47;;;;;;;4.15;3.72;;;;;;;;;;5049173;28;20068;-80
2021/08/26 10:19:32;;;;;;;4.93;3.90;;;;;;;;;;5049006;28;20587;-81
2021/08/26 10:22:16;;;;;;;4.50;3.97;;;;;;;;;;5047943;28;20040;-82
2021/08/26 10:25:01;;;;;;;5.85;3.85;;;;;;;;;;5047521;28;20041;-81
2021/08/26 10:27:45;;;;;;;4.38;3.70;;;;;;;;;;5047343;28;20052;-79
2021/08/26 10:30:31;;;;;;;4.10;3.65;;;;;;;;;;5047702;28;20248;-80
2021/08/26 10:33:16;;;;;;;4.45;3.65;;;;;;;;;;5047038;28;20404;-79
2021/08/26 10:36:07;;;;;;;4.15;3.70;;;;;;;;;;5047961;28;20107;-79
2021/08/26 10:38:52;;;;;;;5.63;4.10;;;;;;;;;;5046926;28;20036;-78
2021/08/26 10:41:37;;;;;;;4.28;3.60;;;;;;;;;;5046911;28;20047;-79
2021/08/26 10:44:21;;;;;;;4.68;4.10;;;;;;;;;;5047981;28;20040;-78
2021/08/26 10:47:07;;;;;;;4.78;3.65;;;;;;;;;;5047605;28;20090;-74
2021/08/26 10:50:11;;;;;;;4.30;3.63;;;;;;;;;;5046893;28;20048;-78
2021/08/26 10:52:59;;;;;;;4.45;3.60;;;;;;;;;;5048719;28;20047;-80
2021/08/26 10:55:47;;;;;;;4.70;4.05;;;;;;;;;;5048263;28;20085;-79
2021/08/26 10:58:33;;;;;;;4.38;3.97;;;;;;;;;;5047477;28;20040;-77
2021/08/26 11:01:34;;;;;;;4.60;4.00;;;;;;;;;;5046991;28;20135;-80
2021/08/26 11:04:34;;;;;;;4.30;3.78;;;;;;;;;;5032505;28;20095;-79
2021/08/26 11:07:30;;;;;;;4.45;3.78;;;;;;;;;;5046428;28;20406;-79
2021/08/26 11:10:25;;;;;;;5.15;4.03;;;;;;;;;;5032493;28;20043;-80
2021/08/26 11:13:29;;;;;;;4.90;4.07;;;;;;;;;;5046420;28;20509;-79
2021/08/26 11:16:25;;;;;;;4.43;3.80;;;;;;;;;;5046166;28;20043;-80
2021/08/26 11:19:16;;;;;;;4.22;3.58;;;;;;;;;;5046068;28;20043;-80
2021/08/26 11:22:02;;;;;;;5.70;3.87;;;;;;;;;;5047445;28;20502;-79
2021/08/26 11:24:50;;;;;;;4.00;3.60;;;;;;;;;;5046249;28;20116;-79
2021/08/26 11:27:36;;;;;;;4.32;3.72;;;;;;;;;;5047568;28;20067;-76
2021/08/26 11:30:21;;;;;;;4.95;3.85;;;;;;;;;;5047153;28;20429;-79
2021/08/26 11:33:06;;;;;;;5.20;3.58;;;;;;;;;;5032014;28;20043;-76
2021/08/26 11:35:50;;;;;;;4.10;3.55;;;;;;;;;;5046058;28;20047;-79
2021/08/26 11:38:48;;;;;;;4.20;3.80;;;;;;;;;;5045909;28;20051;-79
2021/08/26 11:41:33;;;;;;;4.05;3.65;;;;;;;;;;5045928;28;20414;-79
2021/08/26 11:44:17;;;;;;;5.07;3.97;;;;;;;;;;5030898;28;20098;-80
2021/08/26 11:47:02;;;;;;;4.15;3.75;;;;;;;;;;5045065;28;20048;-79
2021/08/26 11:49:46;;;;;;;4.32;3.53;;;;;;;;;;5043530;28;20402;-80
2021/08/26 11:52:32;;;;;;;4.88;3.85;;;;;;;;;;5046681;28;20121;-79
2021/08/26 11:55:17;;;;;;;4.72;4.22;;;;;;;;;;5031677;28;20122;-76
2021/08/26 11:58:03;;;;;;;5.05;3.72;;;;;;;;;;5046017;28;20130;-79
2021/08/26 12:00:49;;;;;;;6.15;3.92;;;;;;;;;;5045858;28;20052;-78
2021/08/26 12:03:34;;;;;;;4.68;3.90;;;;;;;;;;5031785;28;20051;-79
2021/08/26 12:06:18;;;;;;;5.05;4.00;;;;;;;;;;5045780;28;20071;-79
2021/08/26 12:09:03;;;;;;;4.13;3.72;;;;;;;;;;5045562;28;20048;-79
2021/08/26 12:11:47;;;;;;;4.28;3.80;;;;;;;;;;5045763;28;20048;-79
2021/08/26 12:14:34;;;;;;;4.00;3.60;;;;;;;;;;5045629;28;20604;-78
2021/08/26 12:17:20;;;;;;;4.00;3.60;;;;;;;;;;5046705;28;20075;-79
2021/08/26 12:20:06;;;;;;;4.95;3.88;;;;;;;;;;5046705;28;20078;-78
2021/08/26 12:22:51;;;;;;;5.53;3.78;;;;;;;;;;5045647;28;20106;-80
2021/08/26 12:25:37;;;;;;;5.03;3.80;;;;;;;;;;5045434;28;20148;-79
2021/08/26 12:28:25;;;;;;;3.85;3.35;;;;;;;;;;5045521;28;20068;-79
2021/08/26 12:31:10;;;;;;;4.40;3.65;;;;;;;;;;5045468;28;20090;-79
2021/08/26 12:34:12;;;;;;;4.78;3.78;;;;;;;;;;5045387;28;20047;-79
2021/08/26 12:37:02;;;;;;;4.60;4.00;;;;;;;;;;5046499;28;20567;-79
2021/08/26 12:39:59;;;;;;;4.18;3.78;;;;;;;;;;5046489;28;20048;-78
2021/08/26 12:43:03;;;;;;;6.25;3.90;;;;;;;;;;5045375;28;20110;-79
2021/08/26 12:45:48;;;;;;;4.65;3.75;;;;;;;;;;5048972;28;20155;-79
2021/08/26 12:48:36;;;;;;;4.30;3.75;;;;;;;;;;5050113;28;20079;-78
2021/08/26 12:51:24;;;;;;;5.03;3.92;;;;;;;;;;5049071;28;20465;-79
2021/08/26 12:54:10;;;;;;;4.88;3.72;;;;;;;;;;5048822;28;20182;-79
2021/08/26 12:56:56;;;;;;;4.30;3.33;;;;;;;;;;5050453;28;20076;-80
2021/08/26 12:59:41;;;;;;;4.72;3.75;;;;;;;;;;5048875;28;20059;-78
2021/08/26 13:02:26;;;;;;;4.75;3.80;;;;;;;;;;5049176;28;20067;-79
2021/08/26 13:05:10;;;;;;;4.18;3.72;;;;;;;;;;5048698;28;20043;-79
2021/08/26 13:07:59;;;;;;;4.13;3.70;;;;;;;;;;5048373;28;20129;-78
2021/08/26 13:10:45;;;;;;;3.88;3.40;;;;;;;;;;5048521;28;20057;-76
2021/08/26 13:13:29;;;;;;;4.13;3.60;;;;;;;;;;5049660;28;20036;-79
2021/08/26 13:16:14;;;;;;;4.47;3.85;;;;;;;;;;5049366;28;20076;-78
2021/08/26 13:18:59;;;;;;;5.20;3.92;;;;;;;;;;5049362;28;20513;-79
2021/08/26 13:21:45;;;;;;;4.75;4.00;;;;;;;;;;5048273;28;20052;-79
2021/08/26 13:24:29;;;;;;;4.20;3.78;;;;;;;;;;5049055;28;20086;-79
2021/08/26 13:27:15;;;;;;;3.95;3.55;;;;;;;;;;5047795;28;20035;-78
2021/08/26 13:30:00;;;;;;;4.65;3.80;;;;;;;;;;5049241;28;20123;-79
2021/08/26 13:32:45;;;;;;;5.43;3.88;;;;;;;;;;5049578;28;20039;-78
2021/08/26 13:35:30;;;;;;;4.55;3.78;;;;;;;;;;5048077;28;20048;-79
2021/08/26 13:38:14;;;;;;;4.25;3.60;;;;;;;;;;5034065;28;20048;-78
2021/08/26 13:40:59;;;;;;;3.85;3.45;;;;;;;;;;5047999;28;20059;-79
2021/08/26 13:43:43;;;;;;;4.13;3.60;;;;;;;;;;5047895;28;20102;-79
2021/08/26 13:46:28;;;;;;;4.30;3.70;;;;;;;;;;5049081;28;20138;-79
2021/08/26 13:49:12;;;;;;;4.05;3.53;;;;;;;;;;5048891;28;20109;-78
2021/08/26 13:51:57;;;;;;;4.47;3.65;;;;;;;;;;5047891;28;20119;-76
2021/08/26 13:54:42;;;;;;;4.13;3.47;;;;;;;;;;5047751;28;20493;-79
2021/08/26 13:57:26;;;;;;;4.13;3.72;;;;;;;;;;5046582;28;20563;-75
2021/08/26 14:00:11;;;;;;;4.95;3.80;;;;;;;;;;5048767;28;20039;-79
2021/08/26 14:02:58;;;;;;;4.10;3.65;;;;;;;;;;5047720;28;20044;-79
2021/08/26 14:05:43;;;;;;;4.60;4.00;;;;;;;;;;5047476;28;20512;-75
2021/08/26 14:08:28;;;;;;;4.05;3.65;;;;;;;;;;5048583;28;20555;-78
2021/08/26 14:11:12;;;;;;;5.35;4.35;;;;;;;;;;5033583;28;20048;-78
2021/08/26 14:13:57;;;;;;;4.68;3.85;;;;;;;;;;5048704;28;20076;-79
2021/08/26 14:16:41;;;;;;;4.18;3.72;;;;;;;;;;5033539;28;20134;-78
2021/08/26 14:19:26;;;;;;;4.35;3.67;;;;;;;;;;5048524;28;20101;-76
2021/08/26 14:22:11;;;;;;;4.57;3.90;;;;;;;;;;5047338;28;20051;-78
2021/08/26 14:24:55;;;;;;;4.30;3.90;;;;;;;;;;5048315;28;20035;-79
2021/08/26 14:27:40;;;;;;;5.80;3.90;;;;;;;;;;5033211;28;20082;-79
2021/08/26 14:30:24;;;;;;;5.22;3.88;;;;;;;;;;5048280;28;20095;-79
2021/08/26 14:33:09;;;;;;;5.38;4.32;;;;;;;;;;5047162;28;20070;-79
2021/08/26 14:35:54;;;;;;;4.72;4.00;;;;;;;;;;5048160;28;20048;-79
2021/08/26 14:38:38;;;;;;;4.30;3.90;;;;;;;;;;5047132;28;20059;-79
2021/08/26 14:41:23;;;;;;;5.05;4.35;;;;;;;;;;5048115;28;20043;-78
2021/08/26 14:44:07;;;;;;;4.70;4.20;;;;;;;;;;5047900;28;20071;-79
2021/08/26 14:46:52;;;;;;;4.75;4.13;;;;;;;;;;5046843;28;20139;-78
2021/08/26 14:49:37;;;;;;;4.93;4.28;;;;;;;;;;5046806;28;20599;-78
2021/08/26 14:52:21;;;;;;;4.30;3.63;;;;;;;;;;5046892;28;20485;-79
2021/08/26 14:55:07;;;;;;;5.15;4.00;;;;;;;;;;5047621;28;20120;-77
2021/08/26 14:57:51;;;;;;;4.63;4.13;;;;;;;;;;5046485;28;20043;-78
2021/08/26 15:00:36;;;;;;;4.60;4.10;;;;;;;;;;5047553;28;20520;-77
2021/08/26 15:03:21;;;;;;;4.38;3.97;;;;;;;;;;5046582;28;20080;-78
2021/08/26 15:06:05;;;;;;;4.57;3.92;;;;;;;;;;5047398;28;20147;-77
2021/08/26 15:08:50;;;;;;;4.35;3.95;;;;;;;;;;5046065;28;20047;-79
2021/08/26 15:11:34;;;;;;;5.35;4.18;;;;;;;;;;5047311;28;20040;-78
2021/08/26 15:14:19;;;;;;;5.03;4.47;;;;;;;;;;5046259;28;20040;-78
2021/08/26 15:17:03;;;;;;;4.75;4.18;;;;;;;;;;5046364;28;20076;-79
2021/08/26 15:19:48;;;;;;;5.30;4.35;;;;;;;;;;5046238;28;20043;-78
2021/08/26 15:22:33;;;;;;;4.78;4.28;;;;;;;;;;5046119;28;20102;-79
2021/08/26 15:25:17;;;;;;;4.35;3.83;;;;;;;;;;5032445;28;20063;-79
2021/08/26 15:28:02;;;;;;;4.47;3.88;;;;;;;;;;5045990;28;20559;-78
2021/08/26 15:30:46;;;;;;;4.35;3.95;;;;;;;;;;5046188;28;20406;-78
2021/08/26 15:33:31;;;;;;;4.95;4.20;;;;;;;;;;5047018;28;20092;-78
2021/08/26 15:36:16;;;;;;;4.55;4.07;;;;;;;;;;5046136;28;20040;-79
2021/08/26 15:39:01;;;;;;;4.25;3.85;;;;;;;;;;5045895;28;20099;-78
2021/08/26 15:41:46;;;;;;;5.32;4.20;;;;;;;;;;5045872;28;20040;-79
2021/08/26 15:44:31;;;;;;;5.07;4.32;;;;;;;;;;5045760;28;20588;-79
2021/08/26 15:47:16;;;;;;;4.40;3.80;;;;;;;;;;5046635;28;20509;-79
2021/08/26 15:50:01;;;;;;;4.70;4.07;;;;;;;;;;5047003;28;20083;-79
2021/08/26 15:52:48;;;;;;;4.97;4.40;;;;;;;;;;5046019;28;20070;-79
2021/08/26 15:55:43;;;;;;;4.80;3.90;;;;;;;;;;5046020;28;20711;-78
2021/08/26 15:58:39;;;;;;;4.57;3.95;;;;;;;;;;5046058;28;20103;-78
2021/08/26 16:01:29;;;;;;;4.40;4.00;;;;;;;;;;5046034;28;20535;-79
2021/08/26 16:04:13;;;;;;;4.65;4.15;;;;;;;;;;5046703;28;20127;-79
2021/08/26 16:06:58;;;;;;;4.63;4.18;;;;;;;;;;5045778;28;20102;-79
2021/08/26 16:09:43;;;;;;;4.53;4.05;;;;;;;;;;5031724;28;20131;-78
2021/08/26 16:12:27;;;;;;;5.25;4.28;;;;;;;;;;5046782;28;20044;-79
2021/08/26 16:15:12;;;;;;;4.88;4.38;;;;;;;;;;5045460;28;20090;-75
2021/08/26 16:17:56;;;;;;;5.15;4.13;;;;;;;;;;5045603;28;20456;-78
2021/08/26 16:20:42;;;;;;;4.95;4.35;;;;;;;;;;5048095;28;20115;-79
2021/08/26 16:23:26;;;;;;;5.22;4.40;;;;;;;;;;5049376;28;20071;-78
2021/08/26 16:26:11;;;;;;;4.95;4.40;;;;;;;;;;5049464;28;20043;-79
2021/08/26 16:28:56;;;;;;;4.55;3.92;;;;;;;;;;5035248;28;20060;-79
2021/08/26 16:31:41;;;;;;;4.10;3.70;;;;;;;;;;5035400;28;20087;-79
2021/08/26 16:34:29;;;;;;;6.15;4.28;;;;;;;;;;5050461;28;20094;-79
2021/08/26 16:37:13;;;;;;;4.75;3.85;;;;;;;;;;5049343;28;20036;-79
2021/08/26 16:40:04;;;;;;;5.45;3.92;;;;;;;;;;5049214;28;20091;-78